Aspen (ASE/KASE)

Map

Information

Location
Aspen, CO
Local Time
13:52 / 1:52 pm
GMT Time
19:52 / 7:52 pm
Gates
2
No FAA reported delays
METAR KASE 281853Z 35008KT 10SM OVC046 01/M03 A2972 RMK AO2 WSHFT 1811 SLP040 T00111033
TAF KASE 281740Z 2818/2918 35005KT P6SM VCSH FEW024 BKN050 TEMPO 2818/2822 2SM -SHSN BR OVC025 FM282200 32006KT P6SM VCSH SCT040 BKN060 TEMPO 2822/2902 VRB15G24KT 1SM -SHSN BR OVC030 FM290300 03005KT P6SM VCSH OVC045 FM291200 11004KT P6SM BKN035